sensor_id;sensor_type;location;lat;lon;timestamp;pressure;altitude;pressure_sealevel;temperature;humidity
68986;BME280;56035;37.534;-122.308;2023-03-18T00:01:41;101451.94;;;17.81;56.27
68986;BME280;56035;37.534;-122.308;2023-03-18T00:04:07;101455.03;;;17.84;61.73
68986;BME280;56035;37.534;-122.308;2023-03-18T00:06:35;101454.97;;;17.74;57.74
68986;BME280;56035;37.534;-122.308;2023-03-18T00:09:03;101456.88;;;17.63;60.91
68986;BME280;56035;37.534;-122.308;2023-03-18T00:11:30;101460.50;;;17.69;71.34
68986;BME280;56035;37.534;-122.308;2023-03-18T00:13:56;101459.09;;;17.56;70.90
68986;BME280;56035;37.534;-122.308;2023-03-18T00:16:23;101469.09;;;17.57;73.94
68986;BME280;56035;37.534;-122.308;2023-03-18T00:18:51;101462.53;;;17.26;75.67
68986;BME280;56035;37.534;-122.308;2023-03-18T00:21:18;101480.66;;;17.23;83.23
68986;BME280;56035;37.534;-122.308;2023-03-18T00:23:46;101471.66;;;17.11;89.88
68986;BME280;56035;37.534;-122.308;2023-03-18T00:26:14;101477.84;;;16.81;92.30
68986;BME280;56035;37.534;-122.308;2023-03-18T00:28:40;101484.66;;;16.68;95.37
68986;BME280;56035;37.534;-122.308;2023-03-18T00:31:09;101476.53;;;16.61;96.91
68986;BME280;56035;37.534;-122.308;2023-03-18T00:33:39;101470.44;;;16.32;99.87
68986;BME280;56035;37.534;-122.308;2023-03-18T00:36:07;101463.91;;;16.22;100.00
68986;BME280;56035;37.534;-122.308;2023-03-18T00:38:35;101470.16;;;16.07;100.00
68986;BME280;56035;37.534;-122.308;2023-03-18T00:41:01;101471.34;;;15.89;100.00
68986;BME280;56035;37.534;-122.308;2023-03-18T00:43:42;101475.03;;;15.73;100.00
68986;BME280;56035;37.534;-122.308;2023-03-18T00:46:23;101467.34;;;15.58;100.00
68986;BME280;56035;37.534;-122.308;2023-03-18T00:48:50;101472.50;;;15.49;100.00
68986;BME280;56035;37.534;-122.308;2023-03-18T00:51:18;101463.00;;;15.45;100.00
68986;BME280;56035;37.534;-122.308;2023-03-18T00:53:52;101469.34;;;15.40;100.00
68986;BME280;56035;37.534;-122.308;2023-03-18T00:56:21;101481.47;;;15.34;100.00
68986;BME280;56035;37.534;-122.308;2023-03-18T00:58:50;101480.25;;;15.25;100.00
68986;BME280;56035;37.534;-122.308;2023-03-18T01:01:17;101491.44;;;15.13;100.00
68986;BME280;56035;37.534;-122.308;2023-03-18T01:03:45;101485.72;;;15.03;100.00
68986;BME280;56035;37.534;-122.308;2023-03-18T01:06:16;101488.13;;;14.94;100.00
68986;BME280;56035;37.534;-122.308;2023-03-18T01:08:43;101474.31;;;14.83;100.00
68986;BME280;56035;37.534;-122.308;2023-03-18T01:11:10;101473.06;;;14.73;100.00
68986;BME280;56035;37.534;-122.308;2023-03-18T01:13:37;101478.03;;;14.71;100.00
68986;BME280;56035;37.534;-122.308;2023-03-18T01:16:05;101473.16;;;14.62;100.00
68986;BME280;56035;37.534;-122.308;2023-03-18T01:18:32;101476.69;;;14.57;100.00
68986;BME280;56035;37.534;-122.308;2023-03-18T01:20:59;101481.53;;;14.50;100.00
68986;BME280;56035;37.534;-122.308;2023-03-18T01:23:25;101481.19;;;14.46;100.00
68986;BME280;56035;37.534;-122.308;2023-03-18T01:25:52;101473.09;;;14.45;100.00
68986;BME280;56035;37.534;-122.308;2023-03-18T01:28:20;101475.66;;;14.46;100.00
68986;BME280;56035;37.534;-122.308;2023-03-18T01:30:48;101480.75;;;14.38;100.00
68986;BME280;56035;37.534;-122.308;2023-03-18T01:33:16;101483.78;;;14.36;100.00
68986;BME280;56035;37.534;-122.308;2023-03-18T01:35:42;101486.38;;;14.26;100.00
68986;BME280;56035;37.534;-122.308;2023-03-18T01:38:08;101492.91;;;14.20;100.00
68986;BME280;56035;37.534;-122.308;2023-03-18T01:40:37;101491.13;;;14.14;100.00
68986;BME280;56035;37.534;-122.308;2023-03-18T01:43:32;101494.53;;;14.04;100.00
68986;BME280;56035;37.534;-122.308;2023-03-18T01:46:01;101488.16;;;14.03;100.00
68986;BME280;56035;37.534;-122.308;2023-03-18T01:48:29;101485.53;;;13.97;100.00
68986;BME280;56035;37.534;-122.308;2023-03-18T01:50:59;101487.38;;;13.91;100.00
68986;BME280;56035;37.534;-122.308;2023-03-18T01:53:37;101495.56;;;13.86;100.00
68986;BME280;56035;37.534;-122.308;2023-03-18T01:56:05;101492.59;;;13.76;100.00
68986;BME280;56035;37.534;-122.308;2023-03-18T01:58:35;101500.53;;;13.72;100.00
68986;BME280;56035;37.534;-122.308;2023-03-18T02:01:08;101497.22;;;13.58;100.00
68986;BME280;56035;37.534;-122.308;2023-03-18T02:03:40;101498.53;;;13.56;100.00
68986;BME280;56035;37.534;-122.308;2023-03-18T02:06:07;101506.75;;;13.51;100.00
68986;BME280;56035;37.534;-122.308;2023-03-18T02:08:37;101501.34;;;13.44;100.00
68986;BME280;56035;37.534;-122.308;2023-03-18T02:11:05;101512.16;;;13.34;100.00
68986;BME280;56035;37.534;-122.308;2023-03-18T02:13:32;101501.47;;;13.26;100.00
68986;BME280;56035;37.534;-122.308;2023-03-18T02:16:24;101513.72;;;13.18;100.00
68986;BME280;56035;37.534;-122.308;2023-03-18T02:18:55;101514.34;;;13.08;100.00
68986;BME280;56035;37.534;-122.308;2023-03-18T02:24:26;101519.81;;;12.85;100.00
68986;BME280;56035;37.534;-122.308;2023-03-18T02:27:27;101514.66;;;12.77;100.00
68986;BME280;56035;37.534;-122.308;2023-03-18T02:30:03;101528.25;;;12.67;100.00
68986;BME280;56035;37.534;-122.308;2023-03-18T02:32:31;101526.66;;;12.59;100.00
68986;BME280;56035;37.534;-122.308;2023-03-18T02:35:00;101526.16;;;12.50;100.00
68986;BME280;56035;37.534;-122.308;2023-03-18T02:37:28;101517.97;;;12.44;100.00
68986;BME280;56035;37.534;-122.308;2023-03-18T02:39:56;101523.81;;;12.35;100.00
68986;BME280;56035;37.534;-122.308;2023-03-18T02:42:36;101517.19;;;12.25;100.00
68986;BME280;56035;37.534;-122.308;2023-03-18T02:45:02;101517.03;;;12.19;100.00
68986;BME280;56035;37.534;-122.308;2023-03-18T02:47:32;101523.97;;;12.10;100.00
68986;BME280;56035;37.534;-122.308;2023-03-18T02:49:59;101529.22;;;12.00;100.00
68986;BME280;56035;37.534;-122.308;2023-03-18T02:52:25;101529.16;;;11.88;100.00
68986;BME280;56035;37.534;-122.308;2023-03-18T02:54:52;101526.19;;;11.83;100.00
68986;BME280;56035;37.534;-122.308;2023-03-18T02:57:23;101529.50;;;11.73;100.00
68986;BME280;56035;37.534;-122.308;2023-03-18T02:59:49;101529.84;;;11.65;100.00
68986;BME280;56035;37.534;-122.308;2023-03-18T03:02:15;101535.88;;;11.56;100.00
68986;BME280;56035;37.534;-122.308;2023-03-18T03:04:42;101536.19;;;11.47;100.00
68986;BME280;56035;37.534;-122.308;2023-03-18T03:07:09;101534.97;;;11.43;100.00
68986;BME280;56035;37.534;-122.308;2023-03-18T03:09:35;101536.31;;;11.34;100.00
68986;BME280;56035;37.534;-122.308;2023-03-18T03:12:01;101550.81;;;11.30;100.00
68986;BME280;56035;37.534;-122.308;2023-03-18T03:14:30;101551.97;;;11.22;100.00
68986;BME280;56035;37.534;-122.308;2023-03-18T03:16:56;101553.91;;;11.15;100.00
68986;BME280;56035;37.534;-122.308;2023-03-18T03:19:24;101550.63;;;11.06;100.00
68986;BME280;56035;37.534;-122.308;2023-03-18T03:21:51;101564.22;;;11.01;100.00
68986;BME280;56035;37.534;-122.308;2023-03-18T03:24:17;101568.13;;;10.93;100.00
68986;BME280;56035;37.534;-122.308;2023-03-18T03:26:43;101575.38;;;10.88;100.00
68986;BME280;56035;37.534;-122.308;2023-03-18T03:29:10;101582.22;;;10.78;100.00
68986;BME280;56035;37.534;-122.308;2023-03-18T03:31:37;101581.44;;;10.71;100.00
68986;BME280;56035;37.534;-122.308;2023-03-18T03:34:03;101578.34;;;10.61;100.00
68986;BME280;56035;37.534;-122.308;2023-03-18T03:36:30;101592.78;;;10.57;100.00
68986;BME280;56035;37.534;-122.308;2023-03-18T03:38:56;101586.25;;;10.51;100.00
68986;BME280;56035;37.534;-122.308;2023-03-18T03:41:22;101592.44;;;10.46;100.00
68986;BME280;56035;37.534;-122.308;2023-03-18T03:43:49;101588.63;;;10.41;100.00
68986;BME280;56035;37.534;-122.308;2023-03-18T03:46:35;101596.72;;;10.36;100.00
68986;BME280;56035;37.534;-122.308;2023-03-18T03:49:02;101600.13;;;10.31;100.00
68986;BME280;56035;37.534;-122.308;2023-03-18T03:51:29;101602.06;;;10.24;100.00
68986;BME280;56035;37.534;-122.308;2023-03-18T03:53:55;101609.03;;;10.20;100.00
68986;BME280;56035;37.534;-122.308;2023-03-18T03:56:21;101608.88;;;10.15;100.00
68986;BME280;56035;37.534;-122.308;2023-03-18T03:58:48;101614.81;;;10.12;100.00
68986;BME280;56035;37.534;-122.308;2023-03-18T04:01:14;101612.69;;;10.07;100.00
68986;BME280;56035;37.534;-122.308;2023-03-18T04:03:40;101608.94;;;10.01;100.00
68986;BME280;56035;37.534;-122.308;2023-03-18T04:06:07;101610.19;;;9.99;100.00
68986;BME280;56035;37.534;-122.308;2023-03-18T04:08:33;101612.75;;;9.94;100.00
68986;BME280;56035;37.534;-122.308;2023-03-18T04:10:59;101617.63;;;9.92;100.00
68986;BME280;56035;37.534;-122.308;2023-03-18T04:13:27;101617.66;;;9.85;100.00
68986;BME280;56035;37.534;-122.308;2023-03-18T04:15:54;101623.78;;;9.80;100.00
68986;BME280;56035;37.534;-122.308;2023-03-18T04:18:20;101616.63;;;9.73;100.00
68986;BME280;56035;37.534;-122.308;2023-03-18T04:20:47;101622.13;;;9.73;100.00
68986;BME280;56035;37.534;-122.308;2023-03-18T04:23:13;101616.41;;;9.68;100.00
68986;BME280;56035;37.534;-122.308;2023-03-18T04:25:39;101617.72;;;9.65;100.00
68986;BME280;56035;37.534;-122.308;2023-03-18T04:28:06;101620.06;;;9.61;100.00
68986;BME280;56035;37.534;-122.308;2023-03-18T04:30:32;101613.69;;;9.54;100.00
68986;BME280;56035;37.534;-122.308;2023-03-18T04:32:58;101614.13;;;9.51;100.00
68986;BME280;56035;37.534;-122.308;2023-03-18T04:35:26;101623.03;;;9.47;100.00
68986;BME280;56035;37.534;-122.308;2023-03-18T04:37:52;101622.81;;;9.42;100.00
68986;BME280;56035;37.534;-122.308;2023-03-18T04:40:19;101627.06;;;9.37;100.00
68986;BME280;56035;37.534;-122.308;2023-03-18T04:42:46;101621.56;;;9.31;100.00
68986;BME280;56035;37.534;-122.308;2023-03-18T04:45:14;101621.38;;;9.26;100.00
68986;BME280;56035;37.534;-122.308;2023-03-18T04:47:40;101627.50;;;9.21;100.00
68986;BME280;56035;37.534;-122.308;2023-03-18T04:50:07;101629.81;;;9.18;100.00
68986;BME280;56035;37.534;-122.308;2023-03-18T04:52:37;101617.16;;;9.10;100.00
68986;BME280;56035;37.534;-122.308;2023-03-18T04:55:05;101611.44;;;9.05;100.00
68986;BME280;56035;37.534;-122.308;2023-03-18T04:57:31;101608.69;;;8.98;100.00
68986;BME280;56035;37.534;-122.308;2023-03-18T05:00:00;101599.16;;;8.94;100.00
68986;BME280;56035;37.534;-122.308;2023-03-18T05:02:26;101612.50;;;8.90;100.00
68986;BME280;56035;37.534;-122.308;2023-03-18T05:04:53;101607.00;;;8.84;100.00
68986;BME280;56035;37.534;-122.308;2023-03-18T05:07:19;101605.28;;;8.76;100.00
68986;BME280;56035;37.534;-122.308;2023-03-18T05:09:45;101607.59;;;8.73;100.00
68986;BME280;56035;37.534;-122.308;2023-03-18T05:12:13;101609.50;;;8.65;100.00
68986;BME280;56035;37.534;-122.308;2023-03-18T05:14:43;101608.63;;;8.58;100.00
68986;BME280;56035;37.534;-122.308;2023-03-18T05:17:11;101609.28;;;8.54;100.00
68986;BME280;56035;37.534;-122.308;2023-03-18T05:19:47;101610.09;;;8.48;100.00
68986;BME280;56035;37.534;-122.308;2023-03-18T05:22:16;101617.91;;;8.44;100.00
68986;BME280;56035;37.534;-122.308;2023-03-18T05:24:44;101617.47;;;8.40;100.00
68986;BME280;56035;37.534;-122.308;2023-03-18T05:27:17;101626.69;;;8.33;100.00
68986;BME280;56035;37.534;-122.308;2023-03-18T05:29:44;101625.63;;;8.27;100.00
68986;BME280;56035;37.534;-122.308;2023-03-18T05:32:11;101620.75;;;8.23;100.00
68986;BME280;56035;37.534;-122.308;2023-03-18T05:34:38;101625.38;;;8.15;100.00
68986;BME280;56035;37.534;-122.308;2023-03-18T05:37:06;101620.72;;;8.09;100.00
68986;BME280;56035;37.534;-122.308;2023-03-18T05:39:33;101621.13;;;8.06;100.00
68986;BME280;56035;37.534;-122.308;2023-03-18T05:42:00;101616.25;;;8.02;100.00
68986;BME280;56035;37.534;-122.308;2023-03-18T05:44:27;101611.78;;;8.01;100.00
68986;BME280;56035;37.534;-122.308;2023-03-18T05:46:54;101619.00;;;8.02;100.00
68986;BME280;56035;37.534;-122.308;2023-03-18T05:49:21;101613.06;;;7.98;100.00
68986;BME280;56035;37.534;-122.308;2023-03-18T05:51:48;101607.78;;;7.96;100.00
68986;BME280;56035;37.534;-122.308;2023-03-18T05:54:15;101611.75;;;7.94;100.00
68986;BME280;56035;37.534;-122.308;2023-03-18T05:56:43;101622.31;;;7.90;100.00
68986;BME280;56035;37.534;-122.308;2023-03-18T05:59:13;101621.03;;;7.86;100.00
68986;BME280;56035;37.534;-122.308;2023-03-18T06:01:40;101632.41;;;7.83;100.00
68986;BME280;56035;37.534;-122.308;2023-03-18T06:04:07;101630.72;;;7.82;100.00
68986;BME280;56035;37.534;-122.308;2023-03-18T06:06:34;101639.31;;;7.72;100.00
68986;BME280;56035;37.534;-122.308;2023-03-18T06:09:04;101636.97;;;7.69;100.00
68986;BME280;56035;37.534;-122.308;2023-03-18T06:11:31;101646.00;;;7.63;100.00
68986;BME280;56035;37.534;-122.308;2023-03-18T06:13:58;101645.34;;;7.61;100.00
68986;BME280;56035;37.534;-122.308;2023-03-18T06:16:24;101649.53;;;7.57;100.00
68986;BME280;56035;37.534;-122.308;2023-03-18T06:18:51;101659.66;;;7.57;100.00
68986;BME280;56035;37.534;-122.308;2023-03-18T06:21:17;101663.47;;;7.56;100.00
68986;BME280;56035;37.534;-122.308;2023-03-18T06:23:43;101647.41;;;7.53;100.00
68986;BME280;56035;37.534;-122.308;2023-03-18T06:26:09;101643.16;;;7.50;100.00
68986;BME280;56035;37.534;-122.308;2023-03-18T06:28:36;101638.94;;;7.47;100.00
68986;BME280;56035;37.534;-122.308;2023-03-18T06:31:02;101638.47;;;7.44;100.00
68986;BME280;56035;37.534;-122.308;2023-03-18T06:33:28;101642.69;;;7.40;100.00
68986;BME280;56035;37.534;-122.308;2023-03-18T06:35:55;101644.59;;;7.39;100.00
68986;BME280;56035;37.534;-122.308;2023-03-18T06:38:22;101650.66;;;7.35;100.00
68986;BME280;56035;37.534;-122.308;2023-03-18T06:40:48;101656.13;;;7.35;100.00
68986;BME280;56035;37.534;-122.308;2023-03-18T06:43:14;101659.66;;;7.28;100.00
68986;BME280;56035;37.534;-122.308;2023-03-18T06:45:41;101676.09;;;7.28;100.00
68986;BME280;56035;37.534;-122.308;2023-03-18T06:48:07;101680.28;;;7.24;100.00
68986;BME280;56035;37.534;-122.308;2023-03-18T06:50:36;101685.53;;;7.19;100.00
68986;BME280;56035;37.534;-122.308;2023-03-18T06:53:05;101679.78;;;7.14;100.00
68986;BME280;56035;37.534;-122.308;2023-03-18T06:55:32;101671.50;;;7.08;100.00
68986;BME280;56035;37.534;-122.308;2023-03-18T06:57:59;101664.53;;;7.05;100.00
68986;BME280;56035;37.534;-122.308;2023-03-18T07:00:25;101657.94;;;6.99;100.00
68986;BME280;56035;37.534;-122.308;2023-03-18T07:02:52;101657.47;;;6.96;100.00
68986;BME280;56035;37.534;-122.308;2023-03-18T07:05:18;101663.16;;;6.94;100.00
68986;BME280;56035;37.534;-122.308;2023-03-18T07:07:47;101654.50;;;6.91;100.00
68986;BME280;56035;37.534;-122.308;2023-03-18T07:10:20;101653.84;;;6.89;100.00
68986;BME280;56035;37.534;-122.308;2023-03-18T07:12:47;101669.22;;;6.90;100.00
68986;BME280;56035;37.534;-122.308;2023-03-18T07:15:16;101664.78;;;6.89;100.00
68986;BME280;56035;37.534;-122.308;2023-03-18T07:17:44;101662.25;;;6.87;100.00
68986;BME280;56035;37.534;-122.308;2023-03-18T07:20:11;101663.50;;;6.85;100.00
68986;BME280;56035;37.534;-122.308;2023-03-18T07:22:37;101668.50;;;6.81;100.00
68986;BME280;56035;37.534;-122.308;2023-03-18T07:25:04;101659.84;;;6.77;100.00
68986;BME280;56035;37.534;-122.308;2023-03-18T07:27:30;101659.00;;;6.77;100.00
68986;BME280;56035;37.534;-122.308;2023-03-18T07:29:57;101661.91;;;6.75;100.00
68986;BME280;56035;37.534;-122.308;2023-03-18T07:32:23;101656.66;;;6.74;100.00
68986;BME280;56035;37.534;-122.308;2023-03-18T07:34:49;101664.88;;;6.74;100.00
68986;BME280;56035;37.534;-122.308;2023-03-18T07:37:15;101658.94;;;6.70;100.00
68986;BME280;56035;37.534;-122.308;2023-03-18T07:39:42;101659.31;;;6.67;100.00
68986;BME280;56035;37.534;-122.308;2023-03-18T07:42:09;101653.19;;;6.65;100.00
68986;BME280;56035;37.534;-122.308;2023-03-18T07:44:36;101650.44;;;6.65;100.00
68986;BME280;56035;37.534;-122.308;2023-03-18T07:47:03;101661.41;;;6.65;100.00
68986;BME280;56035;37.534;-122.308;2023-03-18T07:49:29;101658.84;;;6.64;100.00
68986;BME280;56035;37.534;-122.308;2023-03-18T07:51:56;101662.63;;;6.63;100.00
68986;BME280;56035;37.534;-122.308;2023-03-18T07:54:23;101663.00;;;6.60;100.00
68986;BME280;56035;37.534;-122.308;2023-03-18T07:56:50;101665.28;;;6.56;100.00
68986;BME280;56035;37.534;-122.308;2023-03-18T07:59:17;101668.25;;;6.54;100.00
68986;BME280;56035;37.534;-122.308;2023-03-18T08:01:43;101665.50;;;6.54;100.00
68986;BME280;56035;37.534;-122.308;2023-03-18T08:04:10;101662.94;;;6.53;100.00
68986;BME280;56035;37.534;-122.308;2023-03-18T08:06:36;101666.06;;;6.50;100.00
68986;BME280;56035;37.534;-122.308;2023-03-18T08:09:04;101652.59;;;6.48;100.00
68986;BME280;56035;37.534;-122.308;2023-03-18T08:11:30;101651.91;;;6.46;100.00
68986;BME280;56035;37.534;-122.308;2023-03-18T08:13:58;101657.22;;;6.48;100.00
68986;BME280;56035;37.534;-122.308;2023-03-18T08:16:24;101656.53;;;6.46;100.00
68986;BME280;56035;37.534;-122.308;2023-03-18T08:18:52;101654.03;;;6.44;100.00
68986;BME280;56035;37.534;-122.308;2023-03-18T08:21:18;101649.56;;;6.43;100.00
68986;BME280;56035;37.534;-122.308;2023-03-18T08:23:45;101653.16;;;6.44;100.00
68986;BME280;56035;37.534;-122.308;2023-03-18T08:26:12;101652.69;;;6.40;100.00
68986;BME280;56035;37.534;-122.308;2023-03-18T08:28:38;101644.22;;;6.35;100.00
68986;BME280;56035;37.534;-122.308;2023-03-18T08:31:04;101641.03;;;6.31;100.00
68986;BME280;56035;37.534;-122.308;2023-03-18T08:33:31;101643.75;;;6.31;100.00
68986;BME280;56035;37.534;-122.308;2023-03-18T08:35:57;101640.34;;;6.29;100.00
68986;BME280;56035;37.534;-122.308;2023-03-18T08:38:24;101640.75;;;6.26;100.00
68986;BME280;56035;37.534;-122.308;2023-03-18T08:40:50;101627.25;;;6.25;100.00
68986;BME280;56035;37.534;-122.308;2023-03-18T08:43:17;101626.59;;;6.23;100.00
68986;BME280;56035;37.534;-122.308;2023-03-18T08:45:51;101628.66;;;6.21;100.00
68986;BME280;56035;37.534;-122.308;2023-03-18T08:48:18;101620.66;;;6.19;100.00
68986;BME280;56035;37.534;-122.308;2023-03-18T08:50:45;101616.25;;;6.18;100.00
68986;BME280;56035;37.534;-122.308;2023-03-18T08:53:11;101600.22;;;6.15;100.00
68986;BME280;56035;37.534;-122.308;2023-03-18T08:55:37;101588.81;;;6.12;100.00
68986;BME280;56035;37.534;-122.308;2023-03-18T08:58:06;101595.97;;;6.13;100.00
68986;BME280;56035;37.534;-122.308;2023-03-18T09:00:34;101585.78;;;6.06;100.00
68986;BME280;56035;37.534;-122.308;2023-03-18T09:03:04;101584.94;;;6.06;100.00
68986;BME280;56035;37.534;-122.308;2023-03-18T09:05:31;101596.72;;;6.06;100.00
68986;BME280;56035;37.534;-122.308;2023-03-18T09:07:58;101589.94;;;6.02;100.00
68986;BME280;56035;37.534;-122.308;2023-03-18T09:10:26;101581.06;;;6.00;100.00
68986;BME280;56035;37.534;-122.308;2023-03-18T09:12:52;101570.72;;;5.96;100.00
68986;BME280;56035;37.534;-122.308;2023-03-18T09:15:18;101568.38;;;5.93;100.00
68986;BME280;56035;37.534;-122.308;2023-03-18T09:17:46;101559.84;;;5.87;100.00
68986;BME280;56035;37.534;-122.308;2023-03-18T09:20:14;101549.69;;;5.81;100.00
68986;BME280;56035;37.534;-122.308;2023-03-18T09:22:43;101543.75;;;5.78;100.00
68986;BME280;56035;37.534;-122.308;2023-03-18T09:25:09;101534.44;;;5.72;100.00
68986;BME280;56035;37.534;-122.308;2023-03-18T09:27:36;101528.47;;;5.69;100.00
68986;BME280;56035;37.534;-122.308;2023-03-18T09:30:03;101527.38;;;5.63;100.00
68986;BME280;56035;37.534;-122.308;2023-03-18T09:32:30;101532.19;;;5.61;100.00
68986;BME280;56035;37.534;-122.308;2023-03-18T09:34:56;101522.84;;;5.55;100.00
68986;BME280;56035;37.534;-122.308;2023-03-18T09:37:22;101528.69;;;5.52;100.00
68986;BME280;56035;37.534;-122.308;2023-03-18T09:39:49;101523.59;;;5.49;100.00
68986;BME280;56035;37.534;-122.308;2023-03-18T09:42:35;101524.00;;;5.46;100.00
68986;BME280;56035;37.534;-122.308;2023-03-18T09:45:28;101532.13;;;5.39;100.00
68986;BME280;56035;37.534;-122.308;2023-03-18T09:53:46;101541.25;;;5.32;100.00
68986;BME280;56035;37.534;-122.308;2023-03-18T09:56:25;101538.03;;;5.28;100.00
68986;BME280;56035;37.534;-122.308;2023-03-18T09:59:05;101540.78;;;5.28;100.00
68986;BME280;56035;37.534;-122.308;2023-03-18T10:01:35;101549.34;;;5.25;100.00
68986;BME280;56035;37.534;-122.308;2023-03-18T10:04:47;101549.34;;;5.25;100.00
68986;BME280;56035;37.534;-122.308;2023-03-18T10:07:16;101546.16;;;5.22;100.00
68986;BME280;56035;37.534;-122.308;2023-03-18T10:09:59;101546.16;;;5.22;100.00
68986;BME280;56035;37.534;-122.308;2023-03-18T10:13:02;101548.88;;;5.22;100.00
68986;BME280;56035;37.534;-122.308;2023-03-18T10:15:41;101548.03;;;5.21;100.00
68986;BME280;56035;37.534;-122.308;2023-03-18T10:18:17;101554.53;;;5.20;100.00
68986;BME280;56035;37.534;-122.308;2023-03-18T10:21:17;101545.47;;;5.20;100.00
68986;BME280;56035;37.534;-122.308;2023-03-18T10:26:51;101552.72;;;5.12;100.00
68986;BME280;56035;37.534;-122.308;2023-03-18T10:38:24;101534.19;;;5.08;100.00
68986;BME280;56035;37.534;-122.308;2023-03-18T10:40:53;101526.72;;;5.02;100.00
68986;BME280;56035;37.534;-122.308;2023-03-18T10:43:29;101532.56;;;4.99;100.00
68986;BME280;56035;37.534;-122.308;2023-03-18T10:46:04;101538.03;;;4.99;100.00
68986;BME280;56035;37.534;-122.308;2023-03-18T10:48:47;101527.84;;;4.92;100.00
68986;BME280;56035;37.534;-122.308;2023-03-18T10:51:35;101533.03;;;4.87;100.00
68986;BME280;56035;37.534;-122.308;2023-03-18T10:54:43;101525.22;;;4.84;100.00
68986;BME280;56035;37.534;-122.308;2023-03-18T10:57:18;101527.16;;;4.76;100.00
68986;BME280;56035;37.534;-122.308;2023-03-18T10:59:46;101534.88;;;4.72;100.00
68986;BME280;56035;37.534;-122.308;2023-03-18T11:05:01;101550.41;;;4.72;100.00
68986;BME280;56035;37.534;-122.308;2023-03-18T11:07:31;101552.47;;;4.69;100.00
68986;BME280;56035;37.534;-122.308;2023-03-18T11:10:12;101550.31;;;4.65;100.00
68986;BME280;56035;37.534;-122.308;2023-03-18T11:12:39;101546.06;;;4.62;100.00
68986;BME280;56035;37.534;-122.308;2023-03-18T11:15:09;101554.41;;;4.61;100.00
68986;BME280;56035;37.534;-122.308;2023-03-18T11:17:48;101554.41;;;4.61;100.00
68986;BME280;56035;37.534;-122.308;2023-03-18T11:22:51;101554.50;;;4.53;100.00
68986;BME280;56035;37.534;-122.308;2023-03-18T11:25:22;101558.84;;;4.62;100.00
68986;BME280;56035;37.534;-122.308;2023-03-18T11:29:14;67561.41;;;-146.16;100.00
68986;BME280;56035;37.534;-122.308;2023-03-18T11:32:52;67561.41;;;-146.16;100.00
68986;BME280;56035;37.534;-122.308;2023-03-18T11:36:21;67561.41;;;-146.16;100.00
68986;BME280;56035;37.534;-122.308;2023-03-18T11:40:15;67561.41;;;-146.16;100.00
68986;BME280;56035;37.534;-122.308;2023-03-18T11:47:30;67561.41;;;-146.16;100.00
68986;BME280;56035;37.534;-122.308;2023-03-18T11:51:23;67561.41;;;-146.16;100.00
68986;BME280;56035;37.534;-122.308;2023-03-18T11:58:28;67561.41;;;-146.16;100.00
68986;BME280;56035;37.534;-122.308;2023-03-18T12:09:36;67561.41;;;-146.16;100.00
68986;BME280;56035;37.534;-122.308;2023-03-18T12:13:17;67561.41;;;-146.16;100.00
68986;BME280;56035;37.534;-122.308;2023-03-18T12:28:05;67561.41;;;-146.16;100.00
68986;BME280;56035;37.534;-122.308;2023-03-18T12:31:43;67561.41;;;-146.16;100.00
68986;BME280;56035;37.534;-122.308;2023-03-18T12:43:41;67561.41;;;-146.16;100.00
68986;BME280;56035;37.534;-122.308;2023-03-18T12:47:29;67561.41;;;-146.16;100.00
68986;BME280;56035;37.534;-122.308;2023-03-18T12:50:58;67561.41;;;-146.16;100.00
68986;BME280;56035;37.534;-122.308;2023-03-18T12:54:32;67561.41;;;-146.16;100.00
68986;BME280;56035;37.534;-122.308;2023-03-18T12:58:15;67561.41;;;-146.16;100.00
68986;BME280;56035;37.534;-122.308;2023-03-18T13:05:39;67561.41;;;-146.16;100.00
68986;BME280;56035;37.534;-122.308;2023-03-18T13:09:31;67561.41;;;-146.16;100.00
68986;BME280;56035;37.534;-122.308;2023-03-18T13:13:20;67561.41;;;-146.16;100.00
68986;BME280;56035;37.534;-122.308;2023-03-18T13:16:48;67561.41;;;-146.16;100.00
68986;BME280;56035;37.534;-122.308;2023-03-18T13:20:15;67561.41;;;-146.16;100.00
68986;BME280;56035;37.534;-122.308;2023-03-18T13:27:15;67561.41;;;-146.16;100.00
68986;BME280;56035;37.534;-122.308;2023-03-18T13:31:21;67561.41;;;-146.16;100.00
68986;BME280;56035;37.534;-122.308;2023-03-18T13:42:22;67561.41;;;-146.16;100.00
68986;BME280;56035;37.534;-122.308;2023-03-18T13:45:57;67561.41;;;-146.16;100.00
68986;BME280;56035;37.534;-122.308;2023-03-18T13:49:28;67561.41;;;-146.16;100.00
68986;BME280;56035;37.534;-122.308;2023-03-18T13:52:55;67561.41;;;-146.16;100.00
68986;BME280;56035;37.534;-122.308;2023-03-18T14:07:47;67561.41;;;-146.16;100.00
68986;BME280;56035;37.534;-122.308;2023-03-18T14:18:35;67561.41;;;-146.16;100.00
68986;BME280;56035;37.534;-122.308;2023-03-18T14:22:06;67561.41;;;-146.16;100.00
68986;BME280;56035;37.534;-122.308;2023-03-18T14:25:41;67561.41;;;-146.16;100.00
68986;BME280;56035;37.534;-122.308;2023-03-18T14:36:19;67561.41;;;-146.16;100.00
68986;BME280;56035;37.534;-122.308;2023-03-18T14:39:59;67561.41;;;-146.16;100.00
68986;BME280;56035;37.534;-122.308;2023-03-18T14:46:58;67561.41;;;-146.16;100.00
68986;BME280;56035;37.534;-122.308;2023-03-18T14:50:28;67561.41;;;-146.16;100.00